Etusivu
METAR-TAF:

METAR-TAF

Lentoasemat :

Beaver Island Airport

Beaver Island, Michigan, Yhdysvallat

Leveyspiiri: 45-41-32N, Pituuspiiri: 085-33-59W, korkeus merenpinnasta: 204 m

Tämänhetkinen sää

Tämä raportti tehtiin 7 minuuttia sitten, kello 07.15 UTC
tyyntä
Lämpötila 1°C
Kosteus 100%
Ilmanpaine 1016 hPa
Näkyvyys: 16.1 km
Pilvistä 3400 ft:n korkeudessa

METAR: KSJX 200715Z AUTO 00000KT 10SM OVC034 01/01 A2999 RMK AO2 T00120012

Aika: 02:22 (07:22 UTC)


TAF: puuttuu

Säähavainnot ja -ennusteet yli 4000 lentoasemalta (METAR- ja TAF-raportit).

Käytössä olevat sääasemat on merkitty karttaan keltaisilla ja punaisilla pisteillä.

Aseta hiiri pisteen päälle nähdäksesi sääaseman nimen.

Klikkaa sitten nähdäksesi säähavainnot ja -ennusteet.

Kartan vaihtaminen: klikkaa mustalla rastilla varustettuja vihreitä pisteitä, niin voit zoomata sisään; viivalla varustettua vihreää pistettä, niin voit zoomata ulos tai vihreitä nuolia, niin pääset viereisille kartoille.


METAR-TAF: